Main page
METAR-TAF:

METAR-TAF

Airports :

Cazaux Air Base

Cazaux, France

latitude: 44-32N, longitude: 001-08W, elevation: 25 m

Current weather observation

The report was made 44 minutes ago, at 14:30 UTC
Wind 7 kt from the South, varying between Southeast and South/Southwest
Temperature 23°C
Humidity 27%
Pressure 1014 hPa
Visibility 10 km or more
no clouds below 1500 m and no cumulonimbus

METAR: LFBC 041430Z AUTO 17007KT 130V200 CAVOK 23/03 Q1014

Time: 17:14 (15:14 UTC)

Forecast

The report was made 31 hours and 14 minutes ago, at 08:00 UTC
Forecast valid from 03 at 09 UTC to 04 at 09 UTC
Wind 10 kt from the North/Northeast
Visibility 10 km or more
no clouds below 1500 m and no cumulonimbus

TAF: LFBC 030800Z 0309/0409 02010KT CAVOK

Weather observations and forecasts of more than 4000 airports (METAR and TAF reports).

The available stations are represented by yellow and red dots on the map.

Hover mouse over dot to see the name of the station.

Then click to see weather observations and forecasts.

To change the map : click on the green buttons with a black cross to zoom in, on the green button with a dash to zoom out, or on the green arrows for adjacent maps.


METAR-TAF: